Time;durP1;ratioP1;P1;durP2;ratioP2;P2;SDS_P1;SDS_P2;PMS_P1;PMS_P2;Temp;Humidity;BMP_temperature;BMP_pressure;BME280_temperature;BME280_humidity;BME280_pressure;Samples;Min_cycle;Max_cycle;Signal;HPM_P1;HPM_P2
2022/09/29 00:00:29;;;;;;;2.65;0.90;;;7.00;99.90;;;;;;5050811;28;20123;-67
2022/09/29 00:02:55;;;;;;;2.95;1.55;;;6.90;99.90;;;;;;5035597;28;20387;-67
2022/09/29 00:05:20;;;;;;;4.03;1.92;;;6.80;99.90;;;;;;5019365;28;20443;-67
2022/09/29 00:07:46;;;;;;;5.38;2.10;;;6.80;99.90;;;;;;5044842;28;20041;-67
2022/09/29 00:10:12;;;;;;;3.42;1.73;;;6.80;99.90;;;;;;5055586;28;20039;-67
2022/09/29 00:12:38;;;;;;;3.90;2.00;;;6.80;99.90;;;;;;5054538;28;20515;-67
2022/09/29 00:15:04;;;;;;;4.60;2.00;;;6.80;99.90;;;;;;5052757;28;20057;-67
2022/09/29 00:17:30;;;;;;;3.75;2.10;;;6.80;99.90;;;;;;5038620;28;20504;-67
2022/09/29 00:19:55;;;;;;;3.75;1.67;;;6.80;99.90;;;;;;5055153;28;20071;-67
2022/09/29 00:22:21;;;;;;;3.08;1.67;;;6.70;99.90;;;;;;5053286;28;20037;-67
2022/09/29 00:24:47;;;;;;;2.75;1.40;;;6.70;99.90;;;;;;5053748;28;20091;-67
2022/09/29 00:27:17;;;;;;;1.75;1.30;;;6.70;99.90;;;;;;5055306;28;20045;-67
2022/09/29 00:29:43;;;;;;;3.50;1.30;;;6.70;99.90;;;;;;5055211;28;20511;-67
2022/09/29 00:32:08;;;;;;;5.32;1.40;;;6.70;99.90;;;;;;5053690;28;20048;-67
2022/09/29 00:34:34;;;;;;;1.90;1.33;;;6.70;99.90;;;;;;5054979;28;20400;-67
2022/09/29 00:37:00;;;;;;;2.83;1.40;;;6.70;99.90;;;;;;5054212;28;20047;-67
2022/09/29 00:39:25;;;;;;;2.40;1.40;;;6.70;99.90;;;;;;5054751;28;20053;-67
2022/09/29 00:41:51;;;;;;;1.80;1.20;;;6.70;99.90;;;;;;5054122;28;20124;-67
2022/09/29 00:44:18;;;;;;;1.45;1.20;;;6.70;99.90;;;;;;5053845;28;20539;-67
2022/09/29 00:46:55;;;;;;;4.35;1.40;;;6.70;99.90;;;;;;5037481;28;20041;-67
2022/09/29 00:49:42;;;;;;;2.28;1.58;;;6.70;99.90;;;;;;5054646;28;20040;-67
2022/09/29 00:52:30;;;;;;;2.90;1.70;;;6.70;99.90;;;;;;5053832;28;20083;-67
2022/09/29 00:55:03;;;;;;;3.92;1.65;;;6.70;99.90;;;;;;5071350;28;20076;-67
2022/09/29 00:57:34;;;;;;;2.92;1.85;;;6.60;99.90;;;;;;5053638;28;20071;-67
2022/09/29 01:00:10;;;;;;;2.00;1.50;;;6.60;99.90;;;;;;5054701;28;20144;-67
2022/09/29 01:02:40;;;;;;;3.28;1.90;;;6.70;99.90;;;;;;5053500;28;20128;-67
2022/09/29 01:05:11;;;;;;;3.45;2.17;;;6.60;99.90;;;;;;5054396;28;20039;-67
2022/09/29 01:07:37;;;;;;;4.55;2.10;;;6.60;99.90;;;;;;5053280;28;20107;-67
2022/09/29 01:10:03;;;;;;;3.42;1.92;;;6.60;99.90;;;;;;5052844;28;20041;-67
2022/09/29 01:12:29;;;;;;;3.80;2.10;;;6.60;99.90;;;;;;5053816;28;20029;-67
2022/09/29 01:14:55;;;;;;;6.28;2.20;;;6.60;99.90;;;;;;5070038;28;20574;-67
2022/09/29 01:17:22;;;;;;;3.22;1.95;;;6.60;99.90;;;;;;5053019;28;20049;-67
2022/09/29 01:20:11;;;;;;;2.60;1.10;;;6.50;99.90;;;;;;5070742;28;20092;-67
2022/09/29 01:23:15;;;;;;;1.50;1.08;;;6.60;99.90;;;;;;5070733;28;20404;-67
2022/09/29 01:26:05;;;;;;;1.08;0.98;;;6.60;99.90;;;;;;5036459;28;20041;-67
2022/09/29 01:28:49;;;;;;;3.97;1.20;;;6.60;99.90;;;;;;5036573;28;20087;-67
2022/09/29 01:31:43;;;;;;;1.70;1.10;;;6.60;99.90;;;;;;5054150;28;20428;-67
2022/09/29 01:34:36;;;;;;;5.65;1.20;;;6.60;99.90;;;;;;5052856;28;20099;-67
2022/09/29 01:37:05;;;;;;;2.78;1.20;;;6.50;99.90;;;;;;5069846;28;20075;-67
2022/09/29 01:39:40;;;;;;;4.43;1.30;;;6.50;99.90;;;;;;5053724;28;20041;-67
2022/09/29 01:42:17;;;;;;;3.15;1.23;;;6.30;99.90;;;;;;5053684;28;20048;-67
2022/09/29 01:45:11;;;;;;;5.05;1.20;;;6.20;99.90;;;;;;5036340;28;20175;-67
2022/09/29 01:47:51;;;;;;;6.38;1.80;;;6.20;99.90;;;;;;5035190;28;20404;-67
2022/09/29 01:50:26;;;;;;;1.70;1.30;;;6.10;99.90;;;;;;5052779;28;20056;-67
2022/09/29 01:53:00;;;;;;;3.08;1.52;;;6.10;99.90;;;;;;5053565;28;20044;-67
2022/09/29 01:55:29;;;;;;;3.25;1.67;;;6.10;99.90;;;;;;5053554;28;20045;-67
2022/09/29 01:58:01;;;;;;;2.40;1.60;;;6.10;99.90;;;;;;5053336;28;20158;-67
2022/09/29 02:00:31;;;;;;;2.10;1.60;;;6.10;99.90;;;;;;5053217;28;20045;-67
2022/09/29 02:03:26;;;;;;;3.22;1.80;;;6.10;99.90;;;;;;5052565;28;20045;-67
2022/09/29 02:06:01;;;;;;;3.40;1.75;;;6.10;99.90;;;;;;5052533;28;20033;-67
2022/09/29 02:08:43;;;;;;;4.38;1.83;;;6.10;99.90;;;;;;5053231;28;20119;-67
2022/09/29 02:11:11;;;;;;;6.38;2.22;;;6.10;99.90;;;;;;5052471;28;20072;-67
2022/09/29 02:13:52;;;;;;;6.18;2.00;;;6.10;99.90;;;;;;5052535;28;20045;-67
2022/09/29 02:16:22;;;;;;;4.32;1.90;;;6.10;99.90;;;;;;5052186;28;20052;-67
2022/09/29 02:18:54;;;;;;;3.95;1.98;;;6.20;99.90;;;;;;5036856;28;20396;-67
2022/09/29 02:21:21;;;;;;;3.93;1.67;;;6.20;99.90;;;;;;5051562;28;20090;-67
2022/09/29 02:23:47;;;;;;;5.13;1.70;;;6.20;99.90;;;;;;5035267;28;20476;-67
2022/09/29 02:26:13;;;;;;;3.13;1.70;;;6.20;99.90;;;;;;5032011;28;20044;-67
2022/09/29 02:28:40;;;;;;;2.95;1.77;;;6.20;99.90;;;;;;5036177;28;20040;-67
2022/09/29 02:31:07;;;;;;;4.53;1.92;;;6.20;99.90;;;;;;5032572;28;20409;-67
2022/09/29 02:33:32;;;;;;;4.22;1.90;;;6.20;99.90;;;;;;5056370;28;20046;-66
2022/09/29 02:36:26;;;;;;;7.50;2.00;;;6.10;99.90;;;;;;5050508;28;20032;-66
2022/09/29 02:39:21;;;;;;;4.47;2.42;;;6.20;99.90;;;;;;5019625;28;20187;-66
2022/09/29 02:42:02;;;;;;;3.17;1.98;;;6.10;99.90;;;;;;5033742;28;20389;-66
2022/09/29 02:44:55;;;;;;;3.73;1.90;;;6.10;99.90;;;;;;5028289;28;20071;-66
2022/09/29 02:47:36;;;;;;;;;;;6.00;99.90;;;;;;5046482;28;20685;-66
2022/09/29 02:50:28;;;;;;;4.72;2.08;;;6.00;99.90;;;;;;5050407;28;19923;-66
2022/09/29 02:53:06;;;;;;;2.28;1.30;;;6.00;99.90;;;;;;5051140;28;20397;-66
2022/09/29 02:55:43;;;;;;;1.33;1.10;;;6.00;99.90;;;;;;5051666;28;20095;-66
2022/09/29 02:58:24;;;;;;;1.25;1.10;;;6.10;99.90;;;;;;5043923;28;20029;-66
2022/09/29 03:00:51;;;;;;;2.42;1.20;;;6.10;99.90;;;;;;5038062;28;20069;-66
2022/09/29 03:03:17;;;;;;;1.60;1.20;;;6.10;99.90;;;;;;5047993;28;20045;-67
2022/09/29 03:05:42;;;;;;;2.13;1.30;;;6.10;99.90;;;;;;5051392;28;20406;-66
2022/09/29 03:08:08;;;;;;;3.35;1.70;;;6.10;99.90;;;;;;5052075;28;20397;-66
2022/09/29 03:10:34;;;;;;;2.25;1.38;;;6.00;99.90;;;;;;5050453;28;20116;-66
2022/09/29 03:12:59;;;;;;;3.28;1.60;;;6.00;99.90;;;;;;5050488;28;20045;-66
2022/09/29 03:15:25;;;;;;;2.85;1.30;;;6.00;99.90;;;;;;5027472;28;20087;-66
2022/09/29 03:17:55;;;;;;;3.13;1.80;;;6.00;99.90;;;;;;5043552;28;20421;-66
2022/09/29 03:20:21;;;;;;;2.97;1.70;;;6.00;99.90;;;;;;5050987;28;20501;-66
2022/09/29 03:22:46;;;;;;;4.60;1.90;;;5.90;99.90;;;;;;5051771;28;20050;-66
2022/09/29 03:25:13;;;;;;;6.55;2.50;;;5.90;99.90;;;;;;5051291;28;20036;-66
2022/09/29 03:27:39;;;;;;;5.15;2.33;;;5.90;99.90;;;;;;5034148;28;20486;-66
2022/09/29 03:30:05;;;;;;;5.72;3.33;;;5.80;99.90;;;;;;5051680;28;20037;-66
2022/09/29 03:32:30;;;;;;;7.28;5.50;;;5.80;99.90;;;;;;5032171;28;20053;-66
2022/09/29 03:34:56;;;;;;;20.38;18.67;;;5.80;99.90;;;;;;5047361;28;20052;-66
2022/09/29 03:37:21;;;;;;;6.43;4.15;;;5.80;99.90;;;;;;5049539;28;20627;-66
2022/09/29 03:39:47;;;;;;;6.88;2.80;;;5.80;99.90;;;;;;5051048;28;20047;-66
2022/09/29 03:42:13;;;;;;;5.65;2.67;;;5.80;99.90;;;;;;5050250;28;20037;-66
2022/09/29 03:44:38;;;;;;;4.03;2.70;;;5.90;99.90;;;;;;5032994;28;20425;-66
2022/09/29 03:47:04;;;;;;;18.55;2.90;;;5.90;99.90;;;;;;5031664;28;20029;-66
2022/09/29 03:49:29;;;;;;;5.82;2.58;;;5.90;99.90;;;;;;5051575;28;20041;-66
2022/09/29 03:51:55;;;;;;;4.93;2.47;;;5.90;99.90;;;;;;5048513;28;20041;-67
2022/09/29 03:54:23;;;;;;;7.38;2.67;;;5.90;99.90;;;;;;5051086;28;20033;-66
2022/09/29 03:56:48;;;;;;;8.40;2.50;;;5.80;99.90;;;;;;5050166;28;20055;-66
2022/09/29 03:59:14;;;;;;;13.05;3.05;;;5.80;99.90;;;;;;5048446;28;20041;-66
2022/09/29 04:01:40;;;;;;;6.97;2.67;;;5.80;99.90;;;;;;5040121;28;20044;-66
2022/09/29 04:04:05;;;;;;;5.70;2.17;;;5.80;99.90;;;;;;5048288;28;20056;-66
2022/09/29 04:06:31;;;;;;;3.92;2.00;;;5.70;99.90;;;;;;5033588;28;20042;-67
2022/09/29 04:08:57;;;;;;;3.08;1.85;;;5.70;99.90;;;;;;5040148;28;20083;-66
2022/09/29 04:11:22;;;;;;;2.65;1.60;;;5.70;99.90;;;;;;5015391;28;20520;-66
2022/09/29 04:13:48;;;;;;;2.78;1.70;;;5.80;99.90;;;;;;5039118;28;20547;-66
2022/09/29 04:16:13;;;;;;;3.47;1.77;;;5.80;99.90;;;;;;5050446;28;20128;-66
2022/09/29 04:18:39;;;;;;;2.63;1.50;;;5.80;99.90;;;;;;5046278;28;20554;-67
2022/09/29 04:21:06;;;;;;;2.65;1.42;;;5.80;99.90;;;;;;5062904;28;20052;-66
2022/09/29 04:23:31;;;;;;;3.67;1.80;;;5.70;99.90;;;;;;5056002;28;20033;-66
2022/09/29 04:25:57;;;;;;;2.20;1.63;;;5.70;99.90;;;;;;5050659;28;20116;-66
2022/09/29 04:28:24;;;;;;;5.00;1.90;;;5.70;99.90;;;;;;5048187;28;20040;-67
2022/09/29 04:30:50;;;;;;;2.58;1.52;;;5.70;99.90;;;;;;5041932;28;20401;-67
2022/09/29 04:33:15;;;;;;;2.80;1.40;;;5.70;99.90;;;;;;5043969;28;20037;-66
2022/09/29 04:35:41;;;;;;;4.35;1.80;;;5.70;99.90;;;;;;5048913;28;20082;-66
2022/09/29 04:38:07;;;;;;;3.25;1.67;;;5.70;99.90;;;;;;5048859;28;20041;-66
2022/09/29 04:40:34;;;;;;;3.97;2.25;;;5.70;99.90;;;;;;5033948;28;20075;-66
2022/09/29 04:42:59;;;;;;;4.93;2.20;;;5.60;99.90;;;;;;5049216;28;20049;-66
2022/09/29 04:45:25;;;;;;;3.42;2.10;;;5.60;99.90;;;;;;5030363;28;20041;-66
2022/09/29 04:47:50;;;;;;;6.82;2.33;;;5.60;99.90;;;;;;5046748;28;20044;-66
2022/09/29 04:50:16;;;;;;;2.92;1.80;;;5.60;99.90;;;;;;5036803;28;20037;-67
2022/09/29 04:52:43;;;;;;;17.13;3.13;;;5.60;99.90;;;;;;5053335;28;20059;-66
2022/09/29 04:55:10;;;;;;;6.20;3.20;;;5.60;99.90;;;;;;5053580;28;20037;-66
2022/09/29 04:57:36;;;;;;;5.82;3.22;;;5.60;99.90;;;;;;5036871;28;20167;-66
2022/09/29 05:00:03;;;;;;;3.55;2.50;;;5.60;99.90;;;;;;5053325;28;20044;-66
2022/09/29 05:02:29;;;;;;;7.65;2.67;;;5.70;99.90;;;;;;5065843;28;20041;-66
2022/09/29 05:04:54;;;;;;;9.27;3.15;;;5.60;99.90;;;;;;5035123;28;20167;-67
2022/09/29 05:07:20;;;;;;;7.22;3.60;;;5.50;99.90;;;;;;5037550;28;20116;-66
2022/09/29 05:09:45;;;;;;;6.03;3.50;;;5.50;99.90;;;;;;5051506;28;20029;-66
2022/09/29 05:12:11;;;;;;;6.65;3.50;;;5.60;99.90;;;;;;5052284;28;20064;-66
2022/09/29 05:14:37;;;;;;;9.10;3.55;;;5.60;99.90;;;;;;5052387;28;20059;-66
2022/09/29 05:17:02;;;;;;;6.10;4.22;;;5.60;99.90;;;;;;5054197;28;20045;-66
2022/09/29 05:19:28;;;;;;;6.05;3.80;;;5.60;99.90;;;;;;5049807;28;20070;-66
2022/09/29 05:21:54;;;;;;;4.20;2.90;;;5.60;99.90;;;;;;5068071;28;20045;-67
2022/09/29 05:24:19;;;;;;;4.78;2.92;;;5.60;99.90;;;;;;5050578;28;20039;-66
2022/09/29 05:26:45;;;;;;;4.10;2.78;;;5.60;99.90;;;;;;5053944;28;20124;-66
2022/09/29 05:29:11;;;;;;;4.43;2.60;;;5.60;99.90;;;;;;5051950;28;20074;-67
2022/09/29 05:31:36;;;;;;;4.47;3.10;;;5.60;99.90;;;;;;5043234;28;20392;-66
2022/09/29 05:34:02;;;;;;;4.53;2.60;;;5.60;99.90;;;;;;5044491;28;20462;-67
2022/09/29 05:36:27;;;;;;;5.10;2.60;;;5.60;99.90;;;;;;5035256;28;20033;-67
2022/09/29 05:38:53;;;;;;;3.03;1.95;;;5.50;99.90;;;;;;5052020;28;20409;-67
2022/09/29 05:41:22;;;;;;;3.67;2.50;;;5.60;99.90;;;;;;5050059;28;20155;-67
2022/09/29 05:43:49;;;;;;;4.18;2.70;;;5.50;99.90;;;;;;5041260;28;20061;-66
2022/09/29 05:46:18;;;;;;;4.22;2.58;;;5.60;99.90;;;;;;5053594;28;20041;-67
2022/09/29 05:48:45;;;;;;;3.63;2.60;;;5.50;99.90;;;;;;5052214;28;20048;-66
2022/09/29 05:51:12;;;;;;;4.07;2.53;;;5.50;99.90;;;;;;5045403;28;20045;-66
2022/09/29 05:53:38;;;;;;;4.35;2.83;;;5.50;99.90;;;;;;5050727;28;20049;-67
2022/09/29 05:56:16;;;;;;;4.75;3.08;;;5.40;99.90;;;;;;5051881;28;20040;-66
2022/09/29 05:58:42;;;;;;;5.60;3.17;;;5.40;99.90;;;;;;5053408;28;20049;-66
2022/09/29 06:01:16;;;;;;;5.25;3.40;;;5.30;99.90;;;;;;5052418;28;20147;-66
2022/09/29 06:03:42;;;;;;;4.68;3.03;;;5.40;99.90;;;;;;5036709;28;20452;-66
2022/09/29 06:06:11;;;;;;;6.25;3.30;;;5.50;99.90;;;;;;5042312;28;20044;-67
2022/09/29 06:08:38;;;;;;;5.63;3.38;;;5.50;99.90;;;;;;5043098;28;20041;-67
2022/09/29 06:11:09;;;;;;;4.72;3.00;;;5.40;99.90;;;;;;5033787;28;20037;-67
2022/09/29 06:13:42;;;;;;;3.90;2.42;;;5.50;99.90;;;;;;5043840;28;20041;-67
2022/09/29 06:16:09;;;;;;;6.03;3.10;;;5.50;99.90;;;;;;5052068;28;20048;-67
2022/09/29 06:18:35;;;;;;;6.13;3.35;;;5.50;99.90;;;;;;5038176;28;20038;-66
2022/09/29 06:21:05;;;;;;;5.63;3.22;;;5.50;99.90;;;;;;5034956;28;20139;-67
2022/09/29 06:23:31;;;;;;;5.78;3.10;;;5.50;99.90;;;;;;5047767;28;20029;-67
2022/09/29 06:26:01;;;;;;;4.63;3.10;;;5.50;99.90;;;;;;5022654;28;20040;-67
2022/09/29 06:28:27;;;;;;;4.68;2.90;;;5.50;99.90;;;;;;5041952;28;20038;-67
2022/09/29 06:30:59;;;;;;;5.00;3.20;;;5.60;99.90;;;;;;5064430;28;20502;-67
2022/09/29 06:33:25;;;;;;;4.18;2.90;;;5.60;99.90;;;;;;5035685;28;20037;-67
2022/09/29 06:38:36;;;;;;;4.78;3.30;;;5.60;99.90;;;;;;5040789;28;20489;-66
2022/09/29 06:41:01;;;;;;;4.05;2.90;;;5.70;99.90;;;;;;5058551;28;20044;-67
2022/09/29 06:43:27;;;;;;;4.90;3.17;;;5.60;99.90;;;;;;5052619;28;20041;-67
2022/09/29 06:45:53;;;;;;;5.45;3.60;;;5.70;99.90;;;;;;5051867;28;20056;-66
2022/09/29 06:48:18;;;;;;;5.82;3.50;;;5.70;99.90;;;;;;5051174;28;20029;-67
2022/09/29 06:50:44;;;;;;;4.32;3.35;;;5.70;99.90;;;;;;5046274;28;21190;-67
2022/09/29 06:53:09;;;;;;;5.53;3.83;;;5.70;99.90;;;;;;5051978;28;20080;-67
2022/09/29 06:55:35;;;;;;;5.35;3.67;;;5.80;99.90;;;;;;5042648;28;20041;-67
2022/09/29 06:58:00;;;;;;;4.88;3.45;;;5.80;99.90;;;;;;5045488;28;20045;-67
2022/09/29 07:00:26;;;;;;;6.80;3.75;;;5.80;99.90;;;;;;5037334;28;20120;-66
2022/09/29 07:02:52;;;;;;;5.93;4.25;;;5.90;99.90;;;;;;5051703;28;20037;-67
2022/09/29 07:05:17;;;;;;;5.47;3.55;;;5.90;99.90;;;;;;5045411;28;20063;-67
2022/09/29 07:07:43;;;;;;;6.43;4.47;;;5.90;99.90;;;;;;5032011;28;20041;-67
2022/09/29 07:10:08;;;;;;;6.82;4.32;;;5.90;99.90;;;;;;5044347;28;20045;-67
2022/09/29 07:12:34;;;;;;;6.20;4.75;;;6.00;99.90;;;;;;5040668;28;20037;-67
2022/09/29 07:15:00;;;;;;;8.30;5.50;;;6.00;99.90;;;;;;5050545;28;20084;-66
2022/09/29 07:17:25;;;;;;;8.10;5.70;;;6.10;99.90;;;;;;5051623;28;20074;-67
2022/09/29 07:19:53;;;;;;;8.25;6.05;;;6.10;99.90;;;;;;5050253;28;20045;-66
2022/09/29 07:22:19;;;;;;;8.40;6.25;;;6.10;99.90;;;;;;5032041;28;20044;-67
2022/09/29 07:24:46;;;;;;;8.63;6.05;;;6.20;99.90;;;;;;5050796;28;20502;-66
2022/09/29 07:27:12;;;;;;;8.25;6.18;;;6.20;99.90;;;;;;5051882;28;20037;-67
2022/09/29 07:29:37;;;;;;;9.88;5.47;;;6.30;99.90;;;;;;5050755;28;20429;-77
2022/09/29 07:32:03;;;;;;;9.60;7.15;;;6.50;99.90;;;;;;5050551;28;20098;-67
2022/09/29 07:34:29;;;;;;;9.20;7.32;;;6.60;99.90;;;;;;5049802;28;20116;-67
2022/09/29 07:36:54;;;;;;;11.68;7.78;;;6.70;99.90;;;;;;5049522;28;20129;-67
2022/09/29 07:39:21;;;;;;;9.85;7.47;;;6.80;99.90;;;;;;5051612;28;20509;-67
2022/09/29 07:41:47;;;;;;;10.38;8.02;;;6.90;99.90;;;;;;5049686;28;20076;-67
2022/09/29 07:44:12;;;;;;;11.70;8.52;;;6.90;99.90;;;;;;5050330;28;20457;-67
2022/09/29 07:46:38;;;;;;;11.40;8.80;;;7.10;99.90;;;;;;5034006;28;20092;-67
2022/09/29 07:49:04;;;;;;;10.95;8.88;;;7.00;99.90;;;;;;5060301;28;20428;-67
2022/09/29 07:51:29;;;;;;;10.95;8.32;;;7.10;99.90;;;;;;5050360;28;20033;-67
2022/09/29 07:53:59;;;;;;;12.27;8.48;;;7.20;99.90;;;;;;5049606;28;20052;-67
2022/09/29 07:56:25;;;;;;;13.70;9.40;;;7.30;99.90;;;;;;5035380;28;20072;-67
2022/09/29 07:58:50;;;;;;;13.40;9.88;;;7.40;99.90;;;;;;5048249;28;20068;-67
2022/09/29 08:01:18;;;;;;;14.68;10.38;;;7.50;99.90;;;;;;5033446;28;20048;-67
2022/09/29 08:03:48;;;;;;;14.82;10.55;;;7.60;99.90;;;;;;5049882;28;20072;-67
2022/09/29 08:06:14;;;;;;;13.20;10.68;;;7.70;99.90;;;;;;5050819;28;20508;-67
2022/09/29 08:08:40;;;;;;;14.20;11.00;;;7.90;99.90;;;;;;5049095;28;20064;-67
2022/09/29 08:11:11;;;;;;;15.05;11.00;;;8.00;99.90;;;;;;5051625;28;20029;-67
2022/09/29 08:13:37;;;;;;;14.60;12.00;;;8.10;99.90;;;;;;5049931;28;20068;-67
2022/09/29 08:16:05;;;;;;;16.65;12.20;;;8.20;99.90;;;;;;5050049;28;20085;-67
2022/09/29 08:18:32;;;;;;;15.20;11.90;;;8.30;99.90;;;;;;5050426;28;20086;-67
2022/09/29 08:20:58;;;;;;;14.50;11.23;;;8.50;99.90;;;;;;5049509;28;20047;-67
2022/09/29 08:23:23;;;;;;;16.00;12.05;;;8.60;99.90;;;;;;5053317;28;20441;-67
2022/09/29 08:25:57;;;;;;;14.45;11.07;;;8.70;99.90;;;;;;5034522;28;20037;-67
2022/09/29 08:28:23;;;;;;;17.85;13.25;;;8.80;99.90;;;;;;5053524;28;20029;-67
2022/09/29 08:30:48;;;;;;;15.45;12.38;;;8.80;99.90;;;;;;5053287;28;20041;-67
2022/09/29 08:33:15;;;;;;;15.00;12.18;;;8.80;99.90;;;;;;5054814;28;20072;-67
2022/09/29 08:35:40;;;;;;;16.25;12.25;;;8.90;99.90;;;;;;5038088;28;20044;-67
2022/09/29 08:38:06;;;;;;;19.52;13.30;;;9.00;99.90;;;;;;5054606;28;20467;-67
2022/09/29 08:40:32;;;;;;;17.35;12.75;;;9.20;99.90;;;;;;5054498;28;20041;-67
2022/09/29 08:43:14;;;;;;;16.63;12.13;;;9.20;99.90;;;;;;5054340;28;20041;-67
2022/09/29 08:45:48;;;;;;;16.52;12.23;;;9.30;99.90;;;;;;5037710;28;20120;-67
2022/09/29 08:48:20;;;;;;;15.77;12.35;;;9.40;99.90;;;;;;5054669;28;20052;-67
2022/09/29 08:50:57;;;;;;;15.82;11.95;;;9.50;99.90;;;;;;5054783;28;20083;-67
2022/09/29 08:53:24;;;;;;;16.33;11.65;;;9.60;99.90;;;;;;5054534;28;20052;-67
2022/09/29 08:55:57;;;;;;;16.15;12.18;;;9.80;99.90;;;;;;5053878;28;20049;-67
2022/09/29 08:58:24;;;;;;;17.50;12.57;;;9.90;99.90;;;;;;5053821;28;20045;-67
2022/09/29 09:00:49;;;;;;;15.18;11.75;;;10.10;99.90;;;;;;5054760;28;20073;-67
2022/09/29 09:03:40;;;;;;;15.18;11.48;;;10.10;99.90;;;;;;5053127;28;20083;-67
2022/09/29 09:06:22;;;;;;;15.13;11.63;;;10.30;99.90;;;;;;5037455;28;20051;-67
2022/09/29 09:09:06;;;;;;;15.88;11.85;;;10.30;99.90;;;;;;5053632;28;20059;-67
2022/09/29 09:11:52;;;;;;;15.57;12.20;;;10.40;99.90;;;;;;5055280;28;20390;-67
2022/09/29 09:14:46;;;;;;;15.82;11.27;;;10.50;99.90;;;;;;5053363;28;20123;-67
2022/09/29 09:17:15;;;;;;;13.05;10.80;;;10.60;99.90;;;;;;5053895;28;20045;-67
2022/09/29 09:20:15;;;;;;;14.35;10.68;;;10.80;99.90;;;;;;5053715;28;20052;-68
2022/09/29 09:22:56;;;;;;;13.10;8.65;;;10.80;99.90;;;;;;5054002;28;20063;-68
2022/09/29 09:25:31;;;;;;;9.82;7.25;;;10.90;99.90;;;;;;5053981;28;20041;-68
2022/09/29 09:28:23;;;;;;;11.73;7.97;;;11.10;99.90;;;;;;5053978;28;20048;-68
2022/09/29 09:30:55;;;;;;;11.05;6.90;;;11.20;99.90;;;;;;5052965;28;20037;-68
2022/09/29 09:33:43;;;;;;;10.45;7.18;;;11.20;99.90;;;;;;5053486;28;20063;-68
2022/09/29 09:36:31;;;;;;;10.30;6.43;;;11.30;99.90;;;;;;5054109;28;20443;-67
2022/09/29 09:39:03;;;;;;;8.80;5.03;;;11.50;99.90;;;;;;5035595;28;20037;-67
2022/09/29 09:41:30;;;;;;;10.43;5.80;;;11.70;99.90;;;;;;5065627;28;20367;-67
2022/09/29 09:44:15;;;;;;;8.48;5.70;;;11.80;99.90;;;;;;5050784;28;20482;-67
2022/09/29 09:46:52;;;;;;;8.43;5.05;;;11.90;99.90;;;;;;5040497;28;20120;-67
2022/09/29 09:49:40;;;;;;;10.38;5.50;;;12.00;99.90;;;;;;5052346;28;20370;-67
2022/09/29 09:52:19;;;;;;;8.70;5.68;;;12.20;99.90;;;;;;5059904;28;20481;-67
2022/09/29 09:54:49;;;;;;;8.20;5.65;;;12.30;99.90;;;;;;5036885;28;20389;-67
2022/09/29 09:57:28;;;;;;;8.00;4.68;;;12.50;99.90;;;;;;5047366;28;20045;-67
2022/09/29 10:00:12;;;;;;;8.38;4.70;;;12.60;99.90;;;;;;5051931;28;20040;-68
2022/09/29 10:02:45;;;;;;;7.97;4.68;;;12.70;99.90;;;;;;5051770;28;20033;-67
2022/09/29 10:05:19;;;;;;;9.32;4.95;;;12.80;99.90;;;;;;5067239;28;20481;-68
2022/09/29 10:07:47;;;;;;;8.32;4.78;;;12.80;99.90;;;;;;5052151;28;20465;-68
2022/09/29 10:10:20;;;;;;;6.50;3.80;;;13.00;99.90;;;;;;5051450;28;20048;-67
2022/09/29 10:12:46;;;;;;;8.85;3.92;;;13.00;99.90;;;;;;5035443;28;20089;-67
2022/09/29 10:15:22;;;;;;;9.27;4.15;;;13.10;99.90;;;;;;5033951;28;20136;-67
2022/09/29 10:17:55;;;;;;;7.47;4.20;;;13.10;99.90;;;;;;5052210;28;20045;-67
2022/09/29 10:20:32;;;;;;;7.55;3.53;;;13.10;99.90;;;;;;5066047;28;20049;-67
2022/09/29 10:23:19;;;;;;;5.43;2.85;;;13.20;99.90;;;;;;5048140;28;20497;-68
2022/09/29 10:25:52;;;;;;;5.07;2.63;;;13.20;99.90;;;;;;5033083;28;20067;-67
2022/09/29 10:28:18;;;;;;;4.95;2.50;;;13.20;99.90;;;;;;5051122;28;20041;-67
2022/09/29 10:30:44;;;;;;;6.13;2.10;;;13.30;99.90;;;;;;5046895;28;20036;-67
2022/09/29 10:33:16;;;;;;;4.03;2.13;;;13.40;99.90;;;;;;5034719;28;20048;-68
2022/09/29 10:35:43;;;;;;;4.15;2.30;;;13.40;99.90;;;;;;5036019;28;20041;-67
2022/09/29 10:38:22;;;;;;;5.03;2.10;;;13.50;99.90;;;;;;5035709;28;20040;-67
2022/09/29 10:41:02;;;;;;;3.80;2.15;;;13.40;99.90;;;;;;5055856;28;20044;-68
2022/09/29 10:43:39;;;;;;;5.63;2.35;;;13.40;99.90;;;;;;5049933;28;20086;-68
2022/09/29 10:46:35;;;;;;;6.80;2.22;;;13.40;99.90;;;;;;5034593;28;20044;-68
2022/09/29 10:49:09;;;;;;;5.50;2.40;;;13.40;99.90;;;;;;5050549;28;20037;-68
2022/09/29 10:51:35;;;;;;;6.47;2.38;;;13.50;99.90;;;;;;5035470;28;20486;-68
2022/09/29 10:54:08;;;;;;;4.13;1.95;;;13.50;99.90;;;;;;5035785;28;20051;-67
2022/09/29 10:56:34;;;;;;;4.13;2.10;;;13.50;99.90;;;;;;5051620;28;20033;-67
2022/09/29 10:59:02;;;;;;;4.63;2.10;;;13.40;99.90;;;;;;5048561;28;20067;-68
2022/09/29 11:01:31;;;;;;;4.05;1.98;;;13.40;99.90;;;;;;5034915;28;20436;-67
2022/09/29 11:04:03;;;;;;;4.20;2.10;;;13.40;99.90;;;;;;5050547;28;20036;-67
2022/09/29 11:06:39;;;;;;;5.63;2.03;;;13.30;99.90;;;;;;5047801;28;20094;-67
2022/09/29 11:09:25;;;;;;;4.28;1.90;;;13.30;99.90;;;;;;5051067;28;20497;-67
2022/09/29 11:11:56;;;;;;;4.68;1.50;;;13.20;99.90;;;;;;5049700;28;20167;-68
2022/09/29 11:14:36;;;;;;;1.73;1.25;;;13.20;99.90;;;;;;5048492;28;20094;-68
2022/09/29 11:17:21;;;;;;;2.05;1.40;;;13.10;99.90;;;;;;5048166;28;20045;-68
2022/09/29 11:19:48;;;;;;;2.00;1.23;;;13.00;99.90;;;;;;5045034;28;20055;-68
2022/09/29 11:22:42;;;;;;;2.15;1.10;;;12.90;99.90;;;;;;5047713;28;20041;-68
2022/09/29 11:25:45;;;;;;;3.35;1.27;;;12.90;99.90;;;;;;5033621;28;20493;-68
2022/09/29 11:28:25;;;;;;;2.45;1.33;;;13.00;99.90;;;;;;5048274;28;20560;-67
2022/09/29 11:31:08;;;;;;;3.22;1.65;;;13.00;99.90;;;;;;5042250;28;20039;-68
2022/09/29 11:33:52;;;;;;;;;;;13.20;99.90;;;;;;5042516;28;20036;-67
2022/09/29 11:36:42;;;;;;;7.57;1.80;;;13.20;99.90;;;;;;5044060;28;19947;-68
2022/09/29 11:39:14;;;;;;;3.50;1.58;;;13.30;99.90;;;;;;5047365;28;20048;-67
2022/09/29 11:42:21;;;;;;;3.88;1.65;;;13.30;99.90;;;;;;5049976;28;20041;-68
2022/09/29 11:45:01;;;;;;;2.30;1.15;;;13.40;99.90;;;;;;5050658;28;20126;-67
2022/09/29 11:48:03;;;;;;;5.18;1.58;;;13.50;99.90;;;;;;5046001;28;20502;-67
2022/09/29 11:50:57;;;;;;;3.53;1.30;;;13.60;99.90;;;;;;5067493;28;20041;-68
2022/09/29 11:53:55;;;;;;;3.47;1.30;;;13.60;99.90;;;;;;5050035;28;20068;-68
2022/09/29 11:56:27;;;;;;;2.75;1.40;;;13.50;99.90;;;;;;5047572;28;20041;-68
2022/09/29 11:59:20;;;;;;;2.05;1.10;;;13.30;99.90;;;;;;5035829;28;20045;-68
2022/09/29 12:02:07;;;;;;;2.38;0.93;;;13.30;99.90;;;;;;5032419;28;20221;-67
2022/09/29 12:05:08;;;;;;;2.90;1.10;;;13.30;99.90;;;;;;5052917;28;20037;-68
2022/09/29 12:08:09;;;;;;;2.67;1.10;;;13.20;99.90;;;;;;5033811;28;20037;-67
2022/09/29 12:10:37;;;;;;;2.17;0.70;;;13.10;99.90;;;;;;5058657;28;20037;-67
2022/09/29 12:13:19;;;;;;;1.10;0.73;;;13.00;99.90;;;;;;5048739;28;20543;-67
2022/09/29 12:15:57;;;;;;;1.48;1.00;;;13.00;99.90;;;;;;5037777;28;20505;-67
2022/09/29 12:18:47;;;;;;;2.33;0.90;;;12.90;99.90;;;;;;5071343;28;20053;-67
2022/09/29 12:21:16;;;;;;;2.65;0.90;;;13.00;99.90;;;;;;5036974;28;20096;-68
2022/09/29 12:23:44;;;;;;;2.13;0.90;;;13.10;99.90;;;;;;5050723;28;20064;-68
2022/09/29 12:26:21;;;;;;;2.25;0.88;;;13.10;99.90;;;;;;5055073;28;20052;-68
2022/09/29 12:28:58;;;;;;;3.42;1.08;;;13.20;99.90;;;;;;5054639;28;20058;-68
2022/09/29 12:31:45;;;;;;;1.55;0.65;;;13.30;99.90;;;;;;5018323;28;20126;-68
2022/09/29 12:34:16;;;;;;;2.65;0.90;;;13.40;99.90;;;;;;5054918;28;20489;-68
2022/09/29 12:37:02;;;;;;;1.15;0.80;;;13.60;99.90;;;;;;5054381;28;20072;-68
2022/09/29 12:40:06;;;;;;;3.28;0.73;;;13.60;99.90;;;;;;5055244;28;20045;-68
2022/09/29 12:42:56;;;;;;;2.53;0.80;;;13.60;99.90;;;;;;5037740;28;20064;-68
2022/09/29 12:45:25;;;;;;;3.33;0.85;;;13.70;99.90;;;;;;5038163;28;20037;-68
2022/09/29 12:48:11;;;;;;;1.85;0.68;;;13.80;99.90;;;;;;5035635;28;20124;-68
2022/09/29 12:50:43;;;;;;;1.20;0.60;;;13.90;99.90;;;;;;5054931;28;20041;-68
2022/09/29 12:53:17;;;;;;;1.92;0.85;;;14.00;99.90;;;;;;5055095;28;20045;-68
2022/09/29 12:56:04;;;;;;;1.48;0.60;;;14.10;99.90;;;;;;5054404;28;20064;-68
2022/09/29 12:58:47;;;;;;;0.82;0.70;;;14.10;99.90;;;;;;5053378;28;20041;-68
2022/09/29 13:01:30;;;;;;;0.73;0.55;;;14.00;99.90;;;;;;5053495;28;20115;-68
2022/09/29 13:04:14;;;;;;;2.28;0.70;;;14.10;99.90;;;;;;5037494;28;20037;-68
2022/09/29 13:06:43;;;;;;;1.75;0.65;;;14.00;99.90;;;;;;5053808;28;20075;-68
2022/09/29 13:09:37;;;;;;;1.75;0.70;;;14.00;99.90;;;;;;5053156;28;20080;-68
2022/09/29 13:12:19;;;;;;;3.03;0.88;;;14.00;99.90;;;;;;5037046;28;20041;-68
2022/09/29 13:15:05;;;;;;;1.83;0.80;;;13.90;99.90;;;;;;5054200;28;20052;-68
2022/09/29 13:17:50;;;;;;;1.92;0.80;;;13.90;99.90;;;;;;5037016;28;20037;-68
2022/09/29 13:20:34;;;;;;;1.50;0.75;;;13.90;99.90;;;;;;5054159;28;20440;-68